Time;durP1;ratioP1;P1;durP2;ratioP2;P2;SDS_P1;SDS_P2;PMS_P1;PMS_P2;Temp;Humidity;BMP_temperature;BMP_pressure;BME280_temperature;BME280_humidity;BME280_pressure;Samples;Min_cycle;Max_cycle;Signal;HPM_P1;HPM_P2
2023/05/09 00:00:13;;;;;;;;;;;;;;;16.96;56.92;101368.78;5084093;28;1138;-48
2023/05/09 00:02:44;;;;;;;;;;;;;;;17.61;55.01;101361.28;5061941;28;1137;-51
2023/05/09 00:05:10;;;;;;;;;;;;;;;16.81;56.72;101366.72;5079197;28;1146;-48
2023/05/09 00:07:36;;;;;;;;;;;;;;;16.49;56.62;101364.75;5085468;28;1170;-50
2023/05/09 00:10:02;;;;;;;;;;;;;;;16.30;56.83;101356.88;5079513;28;1917;-48
2023/05/09 00:12:28;;;;;;;;;;;;;;;16.15;56.51;101360.28;5079695;28;1117;-50
2023/05/09 00:14:55;;;;;;;;;;;;;;;17.30;56.17;101355.59;5079754;28;1054;-47
2023/05/09 00:17:22;;;;;;;;;;;;;;;17.00;56.21;101356.19;5079836;28;1273;-51
2023/05/09 00:19:51;;;;;;;;;;;;;;;16.54;56.76;101354.66;5078836;28;1189;-50
2023/05/09 00:22:18;;;;;;;;;;;;;;;16.29;57.03;101359.88;5084256;28;1054;-50
2023/05/09 00:24:43;;;;;;;;;;;;;;;16.19;56.71;101357.84;5083132;28;1057;-51
2023/05/09 00:27:09;;;;;;;;;;;;;;;16.12;56.82;101362.69;5079429;28;1138;-47
2023/05/09 00:29:34;;;;;;;;;;;;;;;17.49;55.63;101364.25;5079206;28;1897;-46
2023/05/09 00:32:00;;;;;;;;;;;;;;;16.90;56.48;101370.66;5079218;28;1111;-50
2023/05/09 00:34:26;;;;;;;;;;;;;;;16.47;56.95;101378.75;5059784;28;1383;-46
2023/05/09 00:36:51;;;;;;;;;;;;;;;16.22;56.87;101377.34;5041317;28;1590;-48
2023/05/09 00:39:17;;;;;;;;;;;;;;;16.36;57.29;101383.28;5076121;28;1150;-49
2023/05/09 00:41:42;;;;;;;;;;;;;;;17.77;55.04;101382.28;5061037;28;1190;-50
2023/05/09 00:44:08;;;;;;;;;;;;;;;16.93;56.46;101381.97;5078936;28;1182;-50
2023/05/09 00:46:33;;;;;;;;;;;;;;;16.53;56.66;101390.59;5084544;28;1079;-49
2023/05/09 00:48:59;;;;;;;;;;;;;;;16.31;56.77;101391.44;5063492;28;1906;-48
2023/05/09 00:51:25;;;;;;;;;;;;;;;16.84;57.00;101390.91;5078922;28;1073;-47
2023/05/09 00:53:50;;;;;;;;;;;;;;;17.57;54.86;101393.16;5092408;28;1117;-47
2023/05/09 00:56:16;;;;;;;;;;;;;;;16.82;56.58;101388.44;5078724;28;1088;-50
2023/05/09 00:58:42;;;;;;;;;;;;;;;16.53;56.59;101394.16;5077879;28;1047;-47
2023/05/09 01:01:08;;;;;;;;;;;;;;;16.30;56.65;101387.06;5050596;28;1055;-48
2023/05/09 01:03:34;;;;;;;;;;;;;;;16.23;56.29;101391.94;5078625;28;1130;-46
2023/05/09 01:06:00;;;;;;;;;;;;;;;17.38;55.68;101390.84;5079923;28;1094;-47
2023/05/09 01:08:44;;;;;;;;;;;;;;;17.08;56.05;101385.94;5081932;28;1141;-47
2023/05/09 01:11:22;;;;;;;;;;;;;;;16.53;56.66;101390.59;5060467;28;1300;-51
2023/05/09 01:13:53;;;;;;;;;;;;;;;16.38;56.63;101392.09;5047725;28;1112;-49
2023/05/09 01:16:22;;;;;;;;;;;;;;;16.93;56.79;101390.22;5060324;28;1113;-47
2023/05/09 01:19:09;;;;;;;;;;;;;;;17.29;55.82;101386.91;5078391;28;1134;-46
2023/05/09 01:21:35;;;;;;;;;;;;;;;16.59;56.92;101390.41;5042957;28;1119;-46
2023/05/09 01:24:04;;;;;;;;;;;;;;;16.39;56.82;101387.44;5045836;28;1123;-48
2023/05/09 01:26:32;;;;;;;;;;;;;;;16.67;57.33;101389.09;5076086;28;1182;-46
2023/05/09 01:29:10;;;;;;;;;;;;;;;17.59;54.97;101380.00;5078395;28;1905;-46
2023/05/09 01:31:37;;;;;;;;;;;;;;;16.70;56.60;101385.81;5078016;28;976;-46
2023/05/09 01:34:02;;;;;;;;;;;;;;;16.47;56.72;101375.19;5043372;28;1035;-44
2023/05/09 01:36:29;;;;;;;;;;;;;;;16.28;56.76;101372.75;5089726;28;869;-48
2023/05/09 01:38:54;;;;;;;;;;;;;;;16.43;57.17;101370.19;5060267;28;1224;-48
2023/05/09 01:41:21;;;;;;;;;;;;;;;17.53;55.42;101367.28;5060201;28;1035;-48
2023/05/09 01:43:46;;;;;;;;;;;;;;;16.75;56.68;101366.66;5077346;28;1144;-45
2023/05/09 01:46:12;;;;;;;;;;;;;;;16.50;56.60;101366.41;5046973;28;1116;-48
2023/05/09 01:48:39;;;;;;;;;;;;;;;16.24;56.63;101366.97;5077463;28;1898;-49
2023/05/09 01:51:05;;;;;;;;;;;;;;;17.25;56.19;101361.91;5064756;28;1044;-47
2023/05/09 01:53:31;;;;;;;;;;;;;;;17.20;55.77;101363.78;5060102;28;1285;-52
2023/05/09 01:55:58;;;;;;;;;;;;;;;16.60;56.72;101372.00;5090807;28;1074;-50
2023/05/09 01:58:23;;;;;;;;;;;;;;;16.37;56.81;101365.75;5043091;28;1174;-50
2023/05/09 02:00:49;;;;;;;;;;;;;;;16.22;56.50;101368.31;5059347;28;1225;-56
2023/05/09 02:03:14;;;;;;;;;;;;;;;16.11;56.68;101366.53;5059548;28;1023;-57
2023/05/09 02:05:41;;;;;;;;;;;;;;;17.00;56.70;101373.53;5077609;28;880;-56
2023/05/09 02:08:07;;;;;;;;;;;;;;;17.26;55.60;101369.06;5065769;28;1080;-56
2023/05/09 02:10:33;;;;;;;;;;;;;;;16.54;57.13;101365.63;5064157;28;1977;-56
2023/05/09 02:12:58;;;;;;;;;;;;;;;16.35;56.71;101362.41;5066233;28;1070;-54
2023/05/09 02:15:24;;;;;;;;;;;;;;;16.22;56.65;101371.06;5029651;28;1320;-55
2023/05/09 02:17:50;;;;;;;;;;;;;;;17.49;55.88;101366.16;5059355;28;1632;-55
2023/05/09 02:20:16;;;;;;;;;;;;;;;17.08;56.07;101367.53;5077451;28;1139;-56
2023/05/09 02:22:41;;;;;;;;;;;;;;;16.60;56.65;101374.75;5059630;28;1071;-54
2023/05/09 02:25:07;;;;;;;;;;;;;;;16.40;56.63;101378.13;5077122;28;1046;-55
2023/05/09 02:27:33;;;;;;;;;;;;;;;16.21;56.65;101367.47;5077133;28;1126;-54
2023/05/09 02:30:01;;;;;;;;;;;;;;;17.44;55.73;101381.53;5059192;28;1918;-52
2023/05/09 02:32:28;;;;;;;;;;;;;;;16.86;56.57;101383.25;5076837;28;1190;-54
2023/05/09 02:34:53;;;;;;;;;;;;;;;16.46;57.03;101379.81;5060211;28;1280;-54
2023/05/09 02:37:19;;;;;;;;;;;;;;;16.27;56.94;101386.75;5065132;28;1059;-53
2023/05/09 02:39:45;;;;;;;;;;;;;;;17.05;56.74;101381.78;5076992;28;1082;-52
2023/05/09 02:42:12;;;;;;;;;;;;;;;17.21;55.87;101384.69;5076882;28;1083;-54
2023/05/09 02:44:37;;;;;;;;;;;;;;;16.62;57.01;101389.06;5077036;28;1129;-55
2023/05/09 02:47:04;;;;;;;;;;;;;;;16.40;56.88;101380.88;5077772;28;1317;-56
2023/05/09 02:49:29;;;;;;;;;;;;;;;16.20;56.74;101384.19;5038760;28;1913;-53
2023/05/09 02:51:55;;;;;;;;;;;;;;;16.52;57.43;101389.78;5057387;28;1123;-56
2023/05/09 02:54:21;;;;;;;;;;;;;;;17.51;55.30;101391.47;5058764;28;1296;-54
2023/05/09 02:56:48;;;;;;;;;;;;;;;16.68;56.68;101395.44;5076419;28;1129;-52
2023/05/09 02:59:14;;;;;;;;;;;;;;;16.46;56.57;101392.72;5079152;28;1078;-56
2023/05/09 03:01:40;;;;;;;;;;;;;;;16.23;56.56;101384.50;5049852;28;1333;-55
2023/05/09 03:04:07;;;;;;;;;;;;;;;16.31;57.18;101393.38;5064881;28;1154;-55
2023/05/09 03:06:33;;;;;;;;;;;;;;;17.72;55.08;101386.94;5081913;28;1042;-52
2023/05/09 03:08:58;;;;;;;;;;;;;;;16.95;56.44;101392.69;5076288;28;1906;-50
2023/05/09 03:11:24;;;;;;;;;;;;;;;16.55;56.72;101393.91;5075902;28;1110;-48
2023/05/09 03:13:50;;;;;;;;;;;;;;;16.35;56.94;101395.34;5076534;28;1233;-53
2023/05/09 03:16:16;;;;;;;;;;;;;;;16.23;56.83;101403.72;5058385;28;1141;-54
2023/05/09 03:18:43;;;;;;;;;;;;;;;17.62;55.51;101398.69;5058120;28;1587;-53
2023/05/09 03:21:09;;;;;;;;;;;;;;;16.93;56.66;101412.19;5058420;28;1289;-53
2023/05/09 03:23:36;;;;;;;;;;;;;;;16.47;57.05;101419.09;5062492;28;1301;-57
2023/05/09 03:26:02;;;;;;;;;;;;;;;16.31;57.01;101415.34;5064399;28;1113;-58
2023/05/09 03:28:28;;;;;;;;;;;;;;;16.39;57.23;101428.59;5045315;28;1107;-55
2023/05/09 03:30:57;;;;;;;;;;;;;;;17.70;54.95;101424.88;5062830;28;1131;-55
2023/05/09 03:33:25;;;;;;;;;;;;;;;16.77;56.95;101435.06;5062581;28;1247;-56
2023/05/09 03:35:51;;;;;;;;;;;;;;;16.42;57.15;101425.34;5066389;28;1550;-47
2023/05/09 03:38:17;;;;;;;;;;;;;;;16.33;56.58;101427.72;5062503;28;1458;-51
2023/05/09 03:40:43;;;;;;;;;;;;;;;16.23;56.70;101435.84;5093625;28;1130;-51
2023/05/09 03:43:10;;;;;;;;;;;;;;;16.55;57.25;101426.84;5062156;28;1241;-54
2023/05/09 03:45:37;;;;;;;;;;;;;;;17.69;55.04;101440.53;5061788;28;1078;-56
2023/05/09 03:48:07;;;;;;;;;;;;;;;16.81;56.71;101429.88;5069131;28;1370;-53
2023/05/09 03:50:34;;;;;;;;;;;;;;;16.46;56.93;101434.72;5066689;28;1968;-56
2023/05/09 03:53:00;;;;;;;;;;;;;;;16.24;57.00;101432.84;5062094;28;1374;-55
2023/05/09 03:55:26;;;;;;;;;;;;;;;16.08;56.68;101434.53;5080089;28;1154;-58
2023/05/09 03:57:52;;;;;;;;;;;;;;;16.38;57.11;101433.28;5062121;28;1107;-53
2023/05/09 04:00:18;;;;;;;;;;;;;;;17.71;55.03;101441.13;5061644;28;1115;-46
2023/05/09 04:02:50;;;;;;;;;;;;;;;16.89;56.70;101440.44;5061414;28;1224;-54
2023/05/09 04:05:26;;;;;;;;;;;;;;;16.46;57.12;101444.88;5061048;28;1249;-51
2023/05/09 04:07:51;;;;;;;;;;;;;;;16.25;56.85;101447.38;5068625;28;1340;-57
2023/05/09 04:10:18;;;;;;;;;;;;;;;16.31;57.48;101451.81;5061667;28;1917;-58
2023/05/09 04:12:44;;;;;;;;;;;;;;;17.68;54.86;101452.63;5072164;28;1131;-57
2023/05/09 04:15:12;;;;;;;;;;;;;;;16.85;56.55;101450.25;5063037;28;1241;-57
2023/05/09 04:17:39;;;;;;;;;;;;;;;16.47;56.91;101450.13;5079606;28;1166;-57
2023/05/09 04:20:06;;;;;;;;;;;;;;;16.29;56.74;101461.44;5048337;28;1206;-58
2023/05/09 04:22:32;;;;;;;;;;;;;;;16.29;57.38;101461.44;5079565;28;1154;-58
2023/05/09 04:24:58;;;;;;;;;;;;;;;17.56;55.33;101461.09;5086136;28;1039;-58
2023/05/09 04:27:26;;;;;;;;;;;;;;;16.62;56.72;101449.47;5061460;28;1260;-55
2023/05/09 04:29:53;;;;;;;;;;;;;;;16.38;57.18;101463.47;5061488;28;1906;-57
2023/05/09 04:32:19;;;;;;;;;;;;;;;16.23;56.94;101474.25;5061333;28;1193;-60
2023/05/09 04:34:45;;;;;;;;;;;;;;;16.69;57.23;101477.56;5061123;28;1284;-55
2023/05/09 04:37:18;;;;;;;;;;;;;;;17.38;55.53;101478.81;5061256;28;1125;-56
2023/05/09 04:39:44;;;;;;;;;;;;;;;16.63;56.93;101484.06;5060888;28;1276;-57
2023/05/09 04:42:17;;;;;;;;;;;;;;;16.40;56.90;101491.47;5061111;28;1254;-57
2023/05/09 04:44:42;;;;;;;;;;;;;;;16.18;56.75;101485.16;5061082;28;1340;-57
2023/05/09 04:47:08;;;;;;;;;;;;;;;16.80;56.78;101483.97;5061288;28;1307;-59
2023/05/09 04:49:33;;;;;;;;;;;;;;;17.38;55.26;101489.81;5088294;28;1914;-58
2023/05/09 04:51:59;;;;;;;;;;;;;;;16.67;56.58;101500.88;5079063;28;1019;-58
2023/05/09 04:54:25;;;;;;;;;;;;;;;16.42;56.74;101497.56;5065741;28;1146;-58
2023/05/09 04:56:52;;;;;;;;;;;;;;;16.20;56.67;101499.44;5061105;28;1206;-59
2023/05/09 04:59:17;;;;;;;;;;;;;;;16.63;57.14;101503.28;5078493;28;1158;-59
2023/05/09 05:01:44;;;;;;;;;;;;;;;17.63;54.68;101496.63;5051698;28;1162;-59
2023/05/09 05:04:10;;;;;;;;;;;;;;;17.39;56.11;101502.47;5046462;28;1236;-58
2023/05/09 05:06:35;;;;;;;;;;;;;;;16.69;55.14;101507.78;5067983;28;1291;-59
2023/05/09 05:09:01;;;;;;;;;;;;;;;16.39;53.38;101503.53;5061443;28;1914;-58
2023/05/09 05:11:27;;;;;;;;;;;;;;;16.20;51.83;101499.44;5060325;28;1186;-60
2023/05/09 05:13:53;;;;;;;;;;;;;;;16.18;50.89;101498.88;5065638;28;1180;-62
2023/05/09 05:16:20;;;;;;;;;;;;;;;16.91;53.80;101493.19;5053142;28;1134;-63
2023/05/09 05:18:46;;;;;;;;;;;;;;;16.50;53.26;101500.94;5060658;28;1358;-62
2023/05/09 05:21:11;;;;;;;;;;;;;;;16.21;51.74;101492.88;5060060;28;1317;-60
2023/05/09 05:23:37;;;;;;;;;;;;;;;16.12;50.61;101483.41;5060127;28;1275;-63
2023/05/09 05:26:04;;;;;;;;;;;;;;;16.90;52.72;101495.13;5062776;28;1159;-62
2023/05/09 05:28:31;;;;;;;;;;;;;;;16.87;53.31;101494.78;5060752;28;1230;-63
2023/05/09 05:30:57;;;;;;;;;;;;;;;16.46;51.60;101502.53;5060076;28;1992;-60
2023/05/09 05:33:22;;;;;;;;;;;;;;;16.81;52.50;101507.63;5060282;28;1150;-63
2023/05/09 05:35:48;;;;;;;;;;;;;;;16.85;52.91;101499.69;5077624;28;1138;-62
2023/05/09 05:38:14;;;;;;;;;;;;;;;16.51;51.42;101508.06;5069238;28;1235;-59
2023/05/09 05:40:42;;;;;;;;;;;;;;;16.35;49.95;101507.06;5060074;28;1119;-60
2023/05/09 05:43:07;;;;;;;;;;;;;;;17.22;52.29;101497.09;5078113;28;1022;-61
2023/05/09 05:45:35;;;;;;;;;;;;;;;16.65;51.60;101503.88;5059803;28;1276;-60
2023/05/09 05:48:04;;;;;;;;;;;;;;;16.37;50.45;101504.91;5059615;28;1161;-61
2023/05/09 05:50:30;;;;;;;;;;;;;;;16.29;49.13;101503.41;5062969;28;1961;-59
2023/05/09 05:52:56;;;;;;;;;;;;;;;17.12;51.10;101496.97;5059315;28;1166;-60
2023/05/09 05:55:22;;;;;;;;;;;;;;;16.60;50.88;101492.81;5059480;28;1370;-60
2023/05/09 05:57:47;;;;;;;;;;;;;;;16.41;49.54;101504.13;5059932;28;1328;-61
2023/05/09 06:00:15;;;;;;;;;;;;;;;16.99;50.83;101498.22;5059598;28;1341;-58
2023/05/09 06:02:47;;;;;;;;;;;;;;;16.72;51.13;101492.69;5050157;28;1112;-61
2023/05/09 06:05:20;;;;;;;;;;;;;;;16.74;51.51;101496.81;5072591;28;1552;-57
2023/05/09 06:07:45;;;;;;;;;;;;;;;17.43;51.54;101492.63;5064567;28;2335;-59
2023/05/09 06:10:11;;;;;;;;;;;;;;;16.74;51.31;101502.31;5077323;28;1905;-57
2023/05/09 06:12:37;;;;;;;;;;;;;;;16.62;50.05;101509.88;5061340;28;1155;-59
2023/05/09 06:15:06;;;;;;;;;;;;;;;17.82;51.46;101507.22;5061237;28;1133;-59
2023/05/09 06:17:35;;;;;;;;;;;;;;;16.83;51.53;101499.97;5059437;28;1264;-59
2023/05/09 06:20:01;;;;;;;;;;;;;;;16.71;50.08;101505.59;5090947;28;1188;-59
2023/05/09 06:22:26;;;;;;;;;;;;;;;16.50;49.36;101506.44;5059312;28;1298;-60
2023/05/09 06:24:52;;;;;;;;;;;;;;;16.36;49.00;101501.31;5079965;28;1074;-59
2023/05/09 06:27:18;;;;;;;;;;;;;;;17.41;50.81;101505.78;5086163;28;1092;-59
2023/05/09 06:29:43;;;;;;;;;;;;;;;16.77;50.34;101501.81;5058606;28;1901;-59
2023/05/09 06:32:09;;;;;;;;;;;;;;;16.84;50.44;101492.53;5076680;28;1174;-60
2023/05/09 06:34:34;;;;;;;;;;;;;;;17.02;51.05;101497.72;5080154;28;1125;-58
2023/05/09 06:37:00;;;;;;;;;;;;;;;16.62;50.13;101504.41;5090432;28;1058;-59
2023/05/09 06:39:25;;;;;;;;;;;;;;;16.50;49.06;101503.69;5079791;28;1097;-61
2023/05/09 06:41:51;;;;;;;;;;;;;;;16.37;48.23;101511.22;5076936;28;1131;-58
2023/05/09 06:44:23;;;;;;;;;;;;;;;17.36;49.95;101505.75;5059084;28;1202;-58
2023/05/09 06:46:49;;;;;;;;;;;;;;;16.60;50.22;101506.56;5076512;28;1130;-58
2023/05/09 06:49:14;;;;;;;;;;;;;;;16.46;49.16;101500.59;5058073;28;1905;-59
2023/05/09 06:51:40;;;;;;;;;;;;;;;17.48;49.96;101496.50;5076776;28;1087;-59
2023/05/09 06:54:06;;;;;;;;;;;;;;;16.80;49.99;101491.41;5076696;28;1131;-59
2023/05/09 06:56:31;;;;;;;;;;;;;;;16.54;49.34;101507.59;5076706;28;1063;-59
2023/05/09 06:58:57;;;;;;;;;;;;;;;16.45;48.33;101498.13;5058680;28;1206;-58
2023/05/09 07:01:22;;;;;;;;;;;;;;;16.25;47.80;101499.50;5075946;28;1071;-60
2023/05/09 07:03:48;;;;;;;;;;;;;;;16.82;49.40;101494.72;5075409;28;1193;-60
2023/05/09 07:06:14;;;;;;;;;;;;;;;16.84;49.81;101490.63;5080677;28;1075;-60
2023/05/09 07:08:40;;;;;;;;;;;;;;;16.41;49.46;101490.41;5065509;28;1217;-60
2023/05/09 07:11:05;;;;;;;;;;;;;;;16.33;48.40;101487.28;5076513;28;1953;-58
2023/05/09 07:13:31;;;;;;;;;;;;;;;16.15;48.17;101478.25;5072581;28;1265;-58
2023/05/09 07:15:56;;;;;;;;;;;;;;;17.28;49.48;101473.25;5067938;28;1056;-61
2023/05/09 07:18:22;;;;;;;;;;;;;;;16.57;49.75;101479.59;5075762;28;1023;-60
2023/05/09 07:20:47;;;;;;;;;;;;;;;16.88;49.64;101480.81;5076143;28;1125;-60
2023/05/09 07:23:13;;;;;;;;;;;;;;;16.93;50.57;101472.63;5076338;28;1209;-60
2023/05/09 07:25:39;;;;;;;;;;;;;;;16.57;49.65;101474.94;5082163;28;1079;-59
2023/05/09 07:28:04;;;;;;;;;;;;;;;16.47;48.73;101482.25;5065340;28;1138;-59
2023/05/09 07:30:30;;;;;;;;;;;;;;;17.07;49.50;101484.03;5075815;28;1977;-59
2023/05/09 07:32:55;;;;;;;;;;;;;;;17.05;50.29;101488.94;5076210;28;1119;-59
2023/05/09 07:35:21;;;;;;;;;;;;;;;16.69;49.83;101477.56;5076130;28;1186;-58
2023/05/09 07:37:47;;;;;;;;;;;;;;;16.52;48.69;101493.25;5073924;28;1066;-60
2023/05/09 07:40:12;;;;;;;;;;;;;;;16.39;48.05;101500.78;5066874;28;1071;-59
2023/05/09 07:42:38;;;;;;;;;;;;;;;17.05;49.73;101499.13;5075973;28;1146;-60
2023/05/09 07:45:05;;;;;;;;;;;;;;;16.60;49.58;101499.13;5075825;28;1117;-58
2023/05/09 07:47:33;;;;;;;;;;;;;;;16.52;48.43;101504.25;5075617;28;1089;-56
2023/05/09 07:49:58;;;;;;;;;;;;;;;17.48;49.63;101507.50;5082945;28;1907;-57
2023/05/09 07:52:24;;;;;;;;;;;;;;;16.81;49.76;101507.63;5077839;28;1049;-57
2023/05/09 07:54:49;;;;;;;;;;;;;;;17.40;50.07;101504.16;5075979;28;1046;-57
2023/05/09 07:57:15;;;;;;;;;;;;;;;17.66;50.57;101509.84;5076351;28;1198;-61
2023/05/09 07:59:41;;;;;;;;;;;;;;;16.99;50.22;101505.66;5075833;28;1140;-60
2023/05/09 08:02:07;;;;;;;;;;;;;;;16.74;49.28;101513.31;5078620;28;1051;-60
2023/05/09 08:04:32;;;;;;;;;;;;;;;16.60;48.32;101512.03;5075639;28;1055;-59
2023/05/09 08:06:58;;;;;;;;;;;;;;;16.55;47.71;101506.47;5082493;28;1059;-59
2023/05/09 08:09:25;;;;;;;;;;;;;;;17.06;49.63;101500.78;5076128;28;1987;-60
2023/05/09 08:11:51;;;;;;;;;;;;;;;16.59;48.89;101502.13;5075497;28;1046;-60
2023/05/09 08:14:16;;;;;;;;;;;;;;;16.55;48.02;101509.22;5083639;28;1035;-59
2023/05/09 08:16:42;;;;;;;;;;;;;;;17.17;49.03;101498.97;5082547;28;1097;-59
2023/05/09 08:19:07;;;;;;;;;;;;;;;16.75;48.66;101492.19;5079386;28;1138;-58
2023/05/09 08:21:33;;;;;;;;;;;;;;;16.48;48.49;101497.59;5079627;28;1054;-60
2023/05/09 08:24:00;;;;;;;;;;;;;;;16.99;48.48;101498.22;5079603;28;1135;-59
2023/05/09 08:26:26;;;;;;;;;;;;;;;17.14;50.00;101503.06;5080268;28;1125;-59
2023/05/09 08:28:53;;;;;;;;;;;;;;;16.79;48.96;101503.47;5069866;28;1909;-60
2023/05/09 08:31:18;;;;;;;;;;;;;;;16.57;48.20;101507.88;5079015;28;1066;-59
2023/05/09 08:33:44;;;;;;;;;;;;;;;16.56;48.19;101510.88;5078993;28;1113;-59
2023/05/09 08:36:09;;;;;;;;;;;;;;;17.26;49.40;101505.63;5079201;28;1150;-55
2023/05/09 08:38:36;;;;;;;;;;;;;;;16.72;49.06;101507.25;5087948;28;1137;-59
2023/05/09 08:41:01;;;;;;;;;;;;;;;17.95;49.43;101504.03;5068379;28;1166;-58
2023/05/09 08:43:27;;;;;;;;;;;;;;;17.26;50.43;101508.38;5079513;28;1109;-59
2023/05/09 08:45:57;;;;;;;;;;;;;;;16.88;49.31;101502.78;5078978;28;1225;-57
2023/05/09 08:48:22;;;;;;;;;;;;;;;16.72;48.27;101507.25;5078868;28;1093;-59
2023/05/09 08:50:48;;;;;;;;;;;;;;;16.76;48.43;101502.09;5075826;28;1914;-57
2023/05/09 08:53:14;;;;;;;;;;;;;;;17.04;49.27;101502.94;5061040;28;1140;-57
2023/05/09 08:55:39;;;;;;;;;;;;;;;16.67;48.68;101504.44;5078942;28;1201;-56
2023/05/09 08:58:05;;;;;;;;;;;;;;;16.49;47.95;101494.59;5078650;28;1065;-58
2023/05/09 09:00:31;;;;;;;;;;;;;;;16.42;47.36;101502.19;5078496;28;1026;-59
2023/05/09 09:03:00;;;;;;;;;;;;;;;16.40;46.90;101493.41;5061289;28;1065;-58
2023/05/09 09:05:25;;;;;;;;;;;;;;;17.41;48.63;101489.28;5078548;28;1082;-56
2023/05/09 09:07:51;;;;;;;;;;;;;;;16.72;49.06;101493.53;5055122;28;1147;-56
2023/05/09 09:10:18;;;;;;;;;;;;;;;16.51;48.35;101491.59;5076811;28;1906;-57
2023/05/09 09:12:43;;;;;;;;;;;;;;;17.14;48.75;101486.56;5078235;28;1069;-57
2023/05/09 09:15:09;;;;;;;;;;;;;;;16.75;49.13;101481.19;5067029;28;1178;-57
2023/05/09 09:17:35;;;;;;;;;;;;;;;16.54;48.76;101480.13;5078753;28;1058;-57
2023/05/09 09:20:03;;;;;;;;;;;;;;;16.45;47.89;101482.47;5060415;28;1225;-57
2023/05/09 09:22:32;;;;;;;;;;;;;;;16.39;47.81;101470.59;5078461;28;1063;-58
2023/05/09 09:24:58;;;;;;;;;;;;;;;16.98;48.84;101473.78;5060791;28;1225;-60
2023/05/09 09:27:24;;;;;;;;;;;;;;;16.56;48.56;101478.78;5077382;28;900;-56
2023/05/09 09:29:50;;;;;;;;;;;;;;;16.38;47.73;101476.34;5078169;28;1902;-56
2023/05/09 09:32:17;;;;;;;;;;;;;;;17.36;48.54;101471.91;5078028;28;1007;-56
2023/05/09 09:34:42;;;;;;;;;;;;;;;16.72;49.01;101468.81;5078000;28;1070;-58
2023/05/09 09:37:08;;;;;;;;;;;;;;;16.54;48.05;101460.91;5078390;28;1141;-57
2023/05/09 09:39:34;;;;;;;;;;;;;;;17.65;48.55;101461.41;5085450;28;1066;-57
2023/05/09 09:42:09;;;;;;;;;;;;;;;16.80;49.57;101469.41;5078254;28;1081;-55
2023/05/09 09:44:35;;;;;;;;;;;;;;;16.57;48.47;101485.09;5075085;28;1154;-61
2023/05/09 09:47:00;;;;;;;;;;;;;;;17.15;49.13;101476.41;5077740;28;1154;-53
2023/05/09 09:49:26;;;;;;;;;;;;;;;17.14;49.70;101466.50;5077301;28;1973;-57
2023/05/09 09:51:55;;;;;;;;;;;;;;;16.69;48.94;101472.06;5072041;28;883;-58
2023/05/09 09:54:21;;;;;;;;;;;;;;;16.66;48.21;101466.25;5061598;28;1189;-58
2023/05/09 09:56:47;;;;;;;;;;;;;;;16.51;47.39;101478.72;5077605;28;1058;-56
2023/05/09 09:59:13;;;;;;;;;;;;;;;16.45;46.73;101478.91;5077524;28;1216;-58
2023/05/09 10:01:51;;;;;;;;;;;;;;;17.51;48.41;101474.78;5077849;28;1136;-57
2023/05/09 10:04:17;;;;;;;;;;;;;;;16.75;49.10;101476.53;5089099;28;1137;-61
2023/05/09 10:06:52;;;;;;;;;;;;;;;16.57;48.24;101479.59;5077074;28;1058;-59
2023/05/09 10:09:18;;;;;;;;;;;;;;;17.81;48.40;101486.28;5077221;28;1977;-56
2023/05/09 10:11:44;;;;;;;;;;;;;;;16.90;49.46;101488.78;5077100;28;1063;-57
2023/05/09 10:14:10;;;;;;;;;;;;;;;16.75;48.63;101497.66;5059496;28;1150;-56
2023/05/09 10:16:36;;;;;;;;;;;;;;;17.05;49.11;101494.44;5058904;28;1008;-56
2023/05/09 10:19:01;;;;;;;;;;;;;;;17.06;49.92;101509.03;5081000;28;988;-57
2023/05/09 10:21:27;;;;;;;;;;;;;;;16.77;49.11;101499.06;5071126;28;1126;-53
2023/05/09 10:23:52;;;;;;;;;;;;;;;16.58;48.32;101503.25;5077292;28;1190;-55
2023/05/09 10:26:29;;;;;;;;;;;;;;;16.85;48.77;101496.97;5059458;28;1138;-56
2023/05/09 10:28:55;;;;;;;;;;;;;;;17.26;49.47;101491.91;5068929;28;1963;-59
2023/05/09 10:31:20;;;;;;;;;;;;;;;16.83;49.11;101493.63;5059115;28;1059;-60
2023/05/09 10:33:47;;;;;;;;;;;;;;;16.64;48.35;101499.47;5076735;28;1122;-53
2023/05/09 10:36:12;;;;;;;;;;;;;;;16.97;48.74;101494.09;5054020;28;1050;-53
2023/05/09 10:38:38;;;;;;;;;;;;;;;17.15;49.12;101501.13;5069761;28;1051;-53
2023/05/09 10:41:04;;;;;;;;;;;;;;;16.79;48.63;101492.47;5047597;28;1185;-59
2023/05/09 10:43:30;;;;;;;;;;;;;;;16.52;48.06;101499.59;5076766;28;1074;-55
2023/05/09 10:45:56;;;;;;;;;;;;;;;16.44;47.44;101491.81;5050961;28;1106;-55
2023/05/09 10:48:23;;;;;;;;;;;;;;;17.15;48.29;101490.13;5035940;28;1211;-51
2023/05/09 10:50:48;;;;;;;;;;;;;;;16.74;48.88;101483.09;5038511;28;1968;-53
2023/05/09 10:53:15;;;;;;;;;;;;;;;16.59;47.90;101478.28;5033554;28;1134;-56
2023/05/09 10:55:47;;;;;;;;;;;;;;;16.53;47.23;101486.69;5035018;28;1428;-55
2023/05/09 10:58:20;;;;;;;;;;;;;;;16.42;47.15;101483.84;5036766;28;1194;-54
2023/05/09 11:00:46;;;;;;;;;;;;;;;17.12;48.44;101491.50;5023783;28;1170;-55
2023/05/09 11:03:11;;;;;;;;;;;;;;;16.64;48.48;101482.16;5040584;28;1126;-52
2023/05/09 11:05:37;;;;;;;;;;;;;;;16.47;47.66;101483.06;5036815;28;1197;-52
2023/05/09 11:08:18;;;;;;;;;;;;;;;16.42;47.55;101483.84;5036379;28;1062;-54
2023/05/09 11:10:44;;;;;;;;;;;;;;;17.61;48.45;101482.28;5036603;28;1914;-54
2023/05/09 11:13:09;;;;;;;;;;;;;;;16.73;49.24;101488.84;5036509;28;1055;-54
2023/05/09 11:15:35;;;;;;;;;;;;;;;16.54;47.87;101496.59;5043432;28;1070;-55
2023/05/09 11:18:08;;;;;;;;;;;;;;;16.38;47.36;101488.19;5025701;28;1162;-58
2023/05/09 11:20:34;;;;;;;;;;;;;;;16.26;47.00;101490.19;5026358;28;1034;-55
2023/05/09 11:23:00;;;;;;;;;;;;;;;16.77;47.57;101488.09;5035180;28;1234;-55
2023/05/09 11:25:28;;;;;;;;;;;;;;;17.30;48.84;101490.28;5027517;28;1225;-56
2023/05/09 11:27:57;;;;;;;;;;;;;;;16.71;48.41;101502.84;5038467;28;1139;-57
2023/05/09 11:30:22;;;;;;;;;;;;;;;16.69;48.81;101513.25;5035861;28;1917;-57
2023/05/09 11:32:57;;;;;;;;;;;;;;;17.15;49.25;101507.44;5034728;28;1225;-57
2023/05/09 11:35:25;;;;;;;;;;;;;;;16.62;48.85;101515.38;5036226;28;1177;-57
2023/05/09 11:38:00;;;;;;;;;;;;;;;16.50;47.59;101507.25;5035667;28;1066;-55
2023/05/09 11:40:26;;;;;;;;;;;;;;;16.33;47.05;101510.06;5035853;28;915;-55
2023/05/09 11:42:52;;;;;;;;;;;;;;;16.20;46.59;101502.19;5036098;28;1087;-55
2023/05/09 11:45:18;;;;;;;;;;;;;;;17.37;48.00;101501.88;5036316;28;1138;-56
2023/05/09 11:47:44;;;;;;;;;;;;;;;16.73;48.08;101511.66;5074108;28;1052;-58
2023/05/09 11:50:10;;;;;;;;;;;;;;;16.41;47.63;101509.63;5077047;28;1914;-56
2023/05/09 11:52:36;;;;;;;;;;;;;;;17.02;48.11;101507.88;5068803;28;979;-56
2023/05/09 11:55:04;;;;;;;;;;;;;;;16.73;48.57;101500.69;5080021;28;1070;-57
2023/05/09 11:57:29;;;;;;;;;;;;;;;16.53;47.82;101504.00;5079895;28;1030;-58
2023/05/09 11:59:55;;;;;;;;;;;;;;;17.44;48.40;101504.44;5080015;28;1099;-57
2023/05/09 12:02:21;;;;;;;;;;;;;;;16.81;48.67;101507.63;5061600;28;1143;-56
2023/05/09 12:04:47;;;;;;;;;;;;;;;16.56;47.90;101499.91;5080160;28;901;-57
2023/05/09 12:07:13;;;;;;;;;;;;;;;16.41;47.35;101500.53;5079443;28;1110;-54
2023/05/09 12:09:38;;;;;;;;;;;;;;;17.64;48.25;101501.00;5061804;28;1906;-56
2023/05/09 12:12:13;;;;;;;;;;;;;;;16.82;48.73;101500.22;5079381;28;1165;-51
2023/05/09 12:14:38;;;;;;;;;;;;;;;16.56;48.21;101494.41;5092606;28;1094;-55
2023/05/09 12:17:07;;;;;;;;;;;;;;;16.38;47.47;101487.31;5083392;28;894;-58
2023/05/09 12:19:33;;;;;;;;;;;;;;;17.56;48.38;101490.53;5078720;28;1050;-57
2023/05/09 12:21:59;;;;;;;;;;;;;;;16.87;48.64;101490.13;5079479;28;1087;-55
2023/05/09 12:24:27;;;;;;;;;;;;;;;16.61;47.80;101497.22;5079273;28;1117;-56
2023/05/09 12:26:54;;;;;;;;;;;;;;;17.70;48.28;101486.22;5078968;28;1124;-56
2023/05/09 12:29:20;;;;;;;;;;;;;;;16.90;48.96;101486.03;5085445;28;1910;-54
2023/05/09 12:31:45;;;;;;;;;;;;;;;16.58;48.12;101475.78;5061298;28;1152;-50
2023/05/09 12:34:11;;;;;;;;;;;;;;;16.46;47.15;101484.13;5079410;28;1122;-57
2023/05/09 12:36:36;;;;;;;;;;;;;;;17.50;48.23;101491.56;5079132;28;1059;-57
2023/05/09 12:39:08;;;;;;;;;;;;;;;16.83;48.71;101477.13;5079007;28;1182;-53
2023/05/09 12:41:33;;;;;;;;;;;;;;;16.56;47.91;101486.19;5078771;28;879;-58
2023/05/09 12:43:59;;;;;;;;;;;;;;;16.89;48.48;101481.66;5079386;28;1078;-58